<?xml version="1.0" encoding="UTF-8" standalone="no" ?>
<gpx xmlns="http://www.topografix.com/GPX/1/1" xmlns:xsi="http://www.w3.org/2001/XMLSchema-instance" xsi:schemaLocation="http://www.topografix.com/GPX/1/1 http://www.topografix.com/GPX/1/1/gpx.xsd" version="1.1" creator="VisuGPX - https://www.visugpx.com">
  <metadata>
    <name>ChailléOrmeaux_Boucles_19km</name>
    <desc><![CDATA[gnerando idor:6553433_6553489_6956451_7846715_7847315_8111388_8144845]]></desc>
  </metadata>
  <trk>
    <name><![CDATA[ChailléOrmeaux_Néflier_9,2km-6553433]]></name>
    <extensions>
      <line xmlns="http://www.topografix.com/GPX/gpx_style/0/2">
        <color>FF0000</color>
        <width>4</width>
      </line>
    </extensions>
    <trkseg>
      <trkpt lat="46.58402" lon="-1.36533">
        <ele>42</ele>
        <time>2023-10-31T20:58:03Z</time>
      </trkpt>
      <trkpt lat="46.58644" lon="-1.36475">
        <ele>34</ele>
        <time>2023-10-31T21:03:30Z</time>
      </trkpt>
      <trkpt lat="46.58529" lon="-1.36947">
        <ele>46</ele>
        <time>2023-10-31T21:11:10Z</time>
      </trkpt>
      <trkpt lat="46.58606" lon="-1.37114">
        <ele>54</ele>
        <time>2023-10-31T21:14:14Z</time>
      </trkpt>
      <trkpt lat="46.58662" lon="-1.37496">
        <ele>53</ele>
        <time>2023-10-31T21:20:12Z</time>
      </trkpt>
      <trkpt lat="46.58809" lon="-1.37496">
        <ele>39</ele>
        <time>2023-10-31T21:23:28Z</time>
      </trkpt>
      <trkpt lat="46.58877" lon="-1.37518">
        <ele>40</ele>
        <time>2023-10-31T21:25:01Z</time>
      </trkpt>
      <trkpt lat="46.58969" lon="-1.37591">
        <ele>49</ele>
        <time>2023-10-31T21:27:21Z</time>
      </trkpt>
      <trkpt lat="46.59039" lon="-1.37702">
        <ele>53</ele>
        <time>2023-10-31T21:29:39Z</time>
      </trkpt>
      <trkpt lat="46.5909" lon="-1.37603">
        <ele>47</ele>
        <time>2023-10-31T21:31:33Z</time>
      </trkpt>
      <trkpt lat="46.59231" lon="-1.37595">
        <ele>44</ele>
        <time>2023-10-31T21:34:41Z</time>
      </trkpt>
      <trkpt lat="46.59446" lon="-1.37706">
        <ele>37</ele>
        <time>2023-10-31T21:39:46Z</time>
      </trkpt>
      <trkpt lat="46.59671" lon="-1.37921">
        <ele>33</ele>
        <time>2023-10-31T21:45:45Z</time>
      </trkpt>
      <trkpt lat="46.59712" lon="-1.37973">
        <ele>34</ele>
        <time>2023-10-31T21:46:57Z</time>
      </trkpt>
      <trkpt lat="46.60107" lon="-1.37702">
        <ele>36</ele>
        <time>2023-10-31T21:56:40Z</time>
      </trkpt>
      <trkpt lat="46.60136" lon="-1.3796">
        <ele>31</ele>
        <time>2023-10-31T22:00:40Z</time>
      </trkpt>
      <trkpt lat="46.60234" lon="-1.37998">
        <ele>34</ele>
        <time>2023-10-31T22:02:55Z</time>
      </trkpt>
      <trkpt lat="46.60213" lon="-1.38144">
        <ele>34</ele>
        <time>2023-10-31T22:05:12Z</time>
      </trkpt>
      <trkpt lat="46.6036" lon="-1.38385">
        <ele>37</ele>
        <time>2023-10-31T22:10:07Z</time>
      </trkpt>
      <trkpt lat="46.60419" lon="-1.38595">
        <ele>40</ele>
        <time>2023-10-31T22:13:35Z</time>
      </trkpt>
      <trkpt lat="46.60293" lon="-1.38814">
        <ele>45</ele>
        <time>2023-10-31T22:17:57Z</time>
      </trkpt>
      <trkpt lat="46.60257" lon="-1.38998">
        <ele>50</ele>
        <time>2023-10-31T22:20:53Z</time>
      </trkpt>
      <trkpt lat="46.60461" lon="-1.39097">
        <ele>35</ele>
        <time>2023-10-31T22:25:40Z</time>
      </trkpt>
      <trkpt lat="46.60549" lon="-1.3929">
        <ele>36</ele>
        <time>2023-10-31T22:29:12Z</time>
      </trkpt>
      <trkpt lat="46.6062" lon="-1.39217">
        <ele>35</ele>
        <time>2023-10-31T22:31:08Z</time>
      </trkpt>
      <trkpt lat="46.60679" lon="-1.39063">
        <ele>35</ele>
        <time>2023-10-31T22:33:50Z</time>
      </trkpt>
      <trkpt lat="46.60882" lon="-1.38766">
        <ele>40</ele>
        <time>2023-10-31T22:40:14Z</time>
      </trkpt>
      <trkpt lat="46.60947" lon="-1.38573">
        <ele>47</ele>
        <time>2023-10-31T22:43:31Z</time>
      </trkpt>
      <trkpt lat="46.608" lon="-1.38543">
        <ele>37</ele>
        <time>2023-10-31T22:46:49Z</time>
      </trkpt>
      <trkpt lat="46.6077" lon="-1.3835">
        <ele>36</ele>
        <time>2023-10-31T22:49:50Z</time>
      </trkpt>
      <trkpt lat="46.60785" lon="-1.3826">
        <ele>37</ele>
        <time>2023-10-31T22:51:15Z</time>
      </trkpt>
      <trkpt lat="46.60705" lon="-1.38161">
        <ele>35</ele>
        <time>2023-10-31T22:53:35Z</time>
      </trkpt>
      <trkpt lat="46.60585" lon="-1.37724">
        <ele>40</ele>
        <time>2023-10-31T23:00:47Z</time>
      </trkpt>
      <trkpt lat="46.60537" lon="-1.375">
        <ele>45</ele>
        <time>2023-10-31T23:04:22Z</time>
      </trkpt>
      <trkpt lat="46.60393" lon="-1.37372">
        <ele>54</ele>
        <time>2023-10-31T23:08:07Z</time>
      </trkpt>
      <trkpt lat="46.60201" lon="-1.37325">
        <ele>65</ele>
        <time>2023-10-31T23:12:27Z</time>
      </trkpt>
      <trkpt lat="46.60095" lon="-1.3735">
        <ele>68</ele>
        <time>2023-10-31T23:14:50Z</time>
      </trkpt>
      <trkpt lat="46.59788" lon="-1.37273">
        <ele>60</ele>
        <time>2023-10-31T23:21:46Z</time>
      </trkpt>
      <trkpt lat="46.5957" lon="-1.37264">
        <ele>55</ele>
        <time>2023-10-31T23:26:37Z</time>
      </trkpt>
      <trkpt lat="46.59393" lon="-1.3711">
        <ele>47</ele>
        <time>2023-10-31T23:31:12Z</time>
      </trkpt>
      <trkpt lat="46.59296" lon="-1.36977">
        <ele>47</ele>
        <time>2023-10-31T23:34:10Z</time>
      </trkpt>
      <trkpt lat="46.59057" lon="-1.36981">
        <ele>37</ele>
        <time>2023-10-31T23:39:29Z</time>
      </trkpt>
      <trkpt lat="46.58992" lon="-1.3693">
        <ele>34</ele>
        <time>2023-10-31T23:41:07Z</time>
      </trkpt>
      <trkpt lat="46.58951" lon="-1.36805">
        <ele>36</ele>
        <time>2023-10-31T23:43:14Z</time>
      </trkpt>
      <trkpt lat="46.58977" lon="-1.36719">
        <ele>41</ele>
        <time>2023-10-31T23:44:41Z</time>
      </trkpt>
      <trkpt lat="46.58936" lon="-1.36702">
        <ele>38</ele>
        <time>2023-10-31T23:45:38Z</time>
      </trkpt>
      <trkpt lat="46.58851" lon="-1.36719">
        <ele>32</ele>
        <time>2023-10-31T23:47:32Z</time>
      </trkpt>
      <trkpt lat="46.58839" lon="-1.36586">
        <ele>31</ele>
        <time>2023-10-31T23:49:35Z</time>
      </trkpt>
      <trkpt lat="46.58783" lon="-1.36522">
        <ele>31</ele>
        <time>2023-10-31T23:51:10Z</time>
      </trkpt>
      <trkpt lat="46.58721" lon="-1.36582">
        <ele>33</ele>
        <time>2023-10-31T23:52:49Z</time>
      </trkpt>
      <trkpt lat="46.58706" lon="-1.36479">
        <ele>33</ele>
        <time>2023-10-31T23:54:26Z</time>
      </trkpt>
      <trkpt lat="46.58364" lon="-1.36466">
        <ele>38</ele>
        <time>2023-11-01T00:02:03Z</time>
      </trkpt>
    </trkseg>
  </trk>
</gpx>